Time;durP1;ratioP1;P1;durP2;ratioP2;P2;SDS_P1;SDS_P2;PMS_P1;PMS_P2;Temp;Humidity;BMP_temperature;BMP_pressure;BME280_temperature;BME280_humidity;BME280_pressure;Samples;Min_cycle;Max_cycle;Signal;HPM_P1;HPM_P2
2022/03/10 00:00:03;;;;;;;36.95;19.10;;;;;;;;;;5031325;28;20077;-78
2022/03/10 00:02:29;;;;;;;35.88;19.90;;;;;;;;;;5054089;28;20052;-80
2022/03/10 00:04:55;;;;;;;35.13;18.60;;;;;;;;;;5053057;28;20089;-81
2022/03/10 00:07:21;;;;;;;33.50;18.20;;;;;;;;;;5053300;28;20103;-78
2022/03/10 00:09:47;;;;;;;37.10;20.30;;;;;;;;;;5036363;28;20037;-78
2022/03/10 00:12:13;;;;;;;38.17;20.08;;;;;;;;;;5040479;28;20093;-79
2022/03/10 00:14:39;;;;;;;33.97;19.63;;;;;;;;;;5055632;28;20037;-81
2022/03/10 00:17:05;;;;;;;37.70;20.38;;;;;;;;;;5038405;28;20044;-80
2022/03/10 00:19:31;;;;;;;36.17;19.20;;;;;;;;;;5041287;28;20017;-79
2022/03/10 00:21:57;;;;;;;35.15;19.60;;;;;;;;;;5041644;28;20049;-79
2022/03/10 00:24:23;;;;;;;37.25;20.70;;;;;;;;;;5041137;28;20041;-78
2022/03/10 00:26:49;;;;;;;36.35;19.98;;;;;;;;;;5041400;28;20116;-78
2022/03/10 00:29:16;;;;;;;32.22;18.75;;;;;;;;;;5041316;28;20025;-78
2022/03/10 00:31:42;;;;;;;36.13;20.15;;;;;;;;;;5058175;28;20072;-78
2022/03/10 00:34:08;;;;;;;40.22;22.05;;;;;;;;;;5057308;28;20045;-80
2022/03/10 00:36:34;;;;;;;34.85;21.70;;;;;;;;;;5056898;28;20042;-78
2022/03/10 00:39:00;;;;;;;40.35;21.90;;;;;;;;;;5040928;28;20064;-79
2022/03/10 00:41:26;;;;;;;38.53;20.40;;;;;;;;;;5041397;28;20029;-79
2022/03/10 00:43:52;;;;;;;33.90;18.73;;;;;;;;;;5057761;28;20029;-79
2022/03/10 00:46:18;;;;;;;35.22;18.40;;;;;;;;;;5057692;28;20028;-79
2022/03/10 00:48:44;;;;;;;36.78;19.65;;;;;;;;;;5058096;28;20051;-78
2022/03/10 00:51:10;;;;;;;38.22;18.98;;;;;;;;;;5056148;28;20045;-81
2022/03/10 00:53:36;;;;;;;33.53;17.75;;;;;;;;;;5050653;28;20048;-78
2022/03/10 00:56:02;;;;;;;35.88;18.90;;;;;;;;;;5038897;28;20036;-78
2022/03/10 00:58:28;;;;;;;34.85;17.63;;;;;;;;;;5056558;28;20393;-78
2022/03/10 01:00:55;;;;;;;37.10;19.45;;;;;;;;;;5052478;28;20053;-78
2022/03/10 01:03:21;;;;;;;41.80;20.35;;;;;;;;;;5051540;28;20480;-79
2022/03/10 01:05:47;;;;;;;40.45;20.42;;;;;;;;;;5047782;28;20060;-79
2022/03/10 01:08:13;;;;;;;40.13;20.05;;;;;;;;;;5054912;28;20048;-79
2022/03/10 01:10:39;;;;;;;40.50;21.45;;;;;;;;;;5049682;28;20457;-81
2022/03/10 01:13:11;;;;;;;39.47;19.55;;;;;;;;;;5046078;28;20042;-80
2022/03/10 01:15:38;;;;;;;34.13;18.13;;;;;;;;;;5035589;28;20036;-79
2022/03/10 01:18:04;;;;;;;36.83;18.65;;;;;;;;;;5058014;28;20036;-80
2022/03/10 01:20:30;;;;;;;35.65;19.40;;;;;;;;;;5058033;28;20180;-79
2022/03/10 01:22:56;;;;;;;35.05;19.20;;;;;;;;;;5055783;28;20049;-78
2022/03/10 01:25:22;;;;;;;34.65;18.48;;;;;;;;;;5037648;28;20093;-80
2022/03/10 01:27:48;;;;;;;35.53;18.75;;;;;;;;;;5056822;28;20103;-79
2022/03/10 01:30:14;;;;;;;34.55;18.58;;;;;;;;;;5040466;28;20048;-79
2022/03/10 01:32:40;;;;;;;36.70;18.75;;;;;;;;;;5040615;28;20124;-79
2022/03/10 01:35:07;;;;;;;38.92;19.50;;;;;;;;;;5039551;28;20041;-78
2022/03/10 01:37:36;;;;;;;37.92;19.25;;;;;;;;;;5040351;28;20042;-78
2022/03/10 01:40:03;;;;;;;33.85;18.55;;;;;;;;;;5040412;28;20105;-79
2022/03/10 01:42:29;;;;;;;40.63;18.90;;;;;;;;;;5056902;28;20036;-78
2022/03/10 01:44:55;;;;;;;35.08;18.42;;;;;;;;;;5057121;28;20061;-78
2022/03/10 01:47:21;;;;;;;36.28;18.40;;;;;;;;;;5057112;28;20056;-78
2022/03/10 01:49:47;;;;;;;37.35;19.70;;;;;;;;;;5056478;28;20017;-79
2022/03/10 01:52:13;;;;;;;40.03;19.48;;;;;;;;;;5058029;28;20026;-80
2022/03/10 01:54:43;;;;;;;34.85;18.92;;;;;;;;;;5057291;28;20033;-79
2022/03/10 01:57:09;;;;;;;35.88;18.33;;;;;;;;;;5053001;28;20443;-81
2022/03/10 01:59:36;;;;;;;36.88;19.08;;;;;;;;;;5025736;28;20053;-79
2022/03/10 02:02:02;;;;;;;36.88;18.85;;;;;;;;;;5053077;28;20049;-78
2022/03/10 02:04:28;;;;;;;35.45;19.40;;;;;;;;;;5040887;28;20049;-78
2022/03/10 02:06:54;;;;;;;33.17;19.17;;;;;;;;;;5038354;28;20049;-78
2022/03/10 02:12:05;;;;;;;30.58;17.98;;;;;;;;;;5043774;28;20060;-79
2022/03/10 02:17:22;;;;;;;41.15;18.73;;;;;;;;;;5046151;28;20029;-80
2022/03/10 02:19:52;;;;;;;36.70;18.50;;;;;;;;;;5042824;28;20068;-80
2022/03/10 02:22:18;;;;;;;35.00;17.90;;;;;;;;;;5026491;28;20080;-81
2022/03/10 02:24:44;;;;;;;35.58;17.50;;;;;;;;;;5032886;28;20041;-79
2022/03/10 02:27:14;;;;;;;33.97;17.92;;;;;;;;;;5056981;28;20061;-80
2022/03/10 02:29:43;;;;;;;35.08;18.33;;;;;;;;;;5035287;28;20041;-80
2022/03/10 02:32:10;;;;;;;37.00;19.20;;;;;;;;;;5052299;28;20053;-80
2022/03/10 02:34:36;;;;;;;38.65;19.33;;;;;;;;;;5034375;28;20439;-80
2022/03/10 02:37:02;;;;;;;33.90;19.27;;;;;;;;;;5035166;28;20045;-81
2022/03/10 02:39:28;;;;;;;38.50;19.27;;;;;;;;;;5051671;28;20046;-80
2022/03/10 02:41:54;;;;;;;40.67;19.15;;;;;;;;;;5034303;28;20037;-80
2022/03/10 02:44:20;;;;;;;37.13;19.73;;;;;;;;;;5052934;28;20037;-79
2022/03/10 02:46:46;;;;;;;34.47;19.42;;;;;;;;;;5050090;28;20041;-80
2022/03/10 02:49:12;;;;;;;33.95;18.52;;;;;;;;;;5032498;28;20033;-79
2022/03/10 02:51:38;;;;;;;34.50;19.55;;;;;;;;;;5032866;28;20037;-80
2022/03/10 02:54:04;;;;;;;35.15;19.30;;;;;;;;;;5034849;28;20052;-80
2022/03/10 02:56:30;;;;;;;38.85;18.65;;;;;;;;;;5056088;28;20145;-80
2022/03/10 02:58:55;;;;;;;37.28;18.95;;;;;;;;;;5036765;28;20052;-80
2022/03/10 03:01:21;;;;;;;38.42;18.70;;;;;;;;;;5051715;28;20095;-80
2022/03/10 03:03:47;;;;;;;32.53;17.65;;;;;;;;;;5032379;28;20037;-80
2022/03/10 03:06:13;;;;;;;35.63;18.27;;;;;;;;;;5038584;28;20038;-79
2022/03/10 03:08:39;;;;;;;31.88;18.55;;;;;;;;;;5036591;28;20033;-81
2022/03/10 03:11:05;;;;;;;35.95;19.08;;;;;;;;;;5037380;28;20041;-82
2022/03/10 03:13:32;;;;;;;34.50;18.50;;;;;;;;;;5041128;28;20353;-80
2022/03/10 03:15:58;;;;;;;35.30;18.05;;;;;;;;;;5024593;28;20037;-82
2022/03/10 03:18:24;;;;;;;40.60;19.17;;;;;;;;;;5038655;28;20040;-83
2022/03/10 03:20:50;;;;;;;36.47;19.80;;;;;;;;;;5021886;28;20368;-82
2022/03/10 03:23:17;;;;;;;35.53;18.83;;;;;;;;;;5041873;28;20038;-81
2022/03/10 03:25:43;;;;;;;39.42;19.77;;;;;;;;;;5029670;28;20099;-80
2022/03/10 03:28:09;;;;;;;35.67;18.50;;;;;;;;;;5049894;28;20041;-79
2022/03/10 03:30:35;;;;;;;40.08;19.40;;;;;;;;;;5049077;28;20033;-79
2022/03/10 03:33:01;;;;;;;37.28;20.23;;;;;;;;;;5033514;28;20071;-80
2022/03/10 03:35:27;;;;;;;40.47;19.58;;;;;;;;;;5032237;28;20076;-79
2022/03/10 03:37:53;;;;;;;37.60;19.60;;;;;;;;;;5048424;28;20099;-79
2022/03/10 03:40:19;;;;;;;37.70;19.25;;;;;;;;;;5034877;28;20064;-79
2022/03/10 03:42:45;;;;;;;40.10;19.27;;;;;;;;;;5037087;28;20049;-79
2022/03/10 03:45:11;;;;;;;39.50;19.15;;;;;;;;;;5036580;28;20369;-79
2022/03/10 03:47:37;;;;;;;34.92;18.15;;;;;;;;;;5037574;28;20048;-79
2022/03/10 03:50:04;;;;;;;39.45;19.58;;;;;;;;;;5052715;28;20033;-78
2022/03/10 03:52:30;;;;;;;40.95;19.92;;;;;;;;;;5053819;28;20045;-79
2022/03/10 03:54:56;;;;;;;39.75;18.90;;;;;;;;;;5049443;28;20049;-81
2022/03/10 03:57:22;;;;;;;38.38;19.77;;;;;;;;;;5044957;28;20045;-81
2022/03/10 03:59:48;;;;;;;36.58;19.42;;;;;;;;;;5027148;28;20433;-81
2022/03/10 04:02:14;;;;;;;40.35;19.00;;;;;;;;;;5028592;28;20045;-80
2022/03/10 04:04:40;;;;;;;36.20;19.35;;;;;;;;;;5026665;28;20535;-80
2022/03/10 04:07:06;;;;;;;40.63;19.52;;;;;;;;;;5027882;28;20099;-79
2022/03/10 04:09:32;;;;;;;38.45;18.75;;;;;;;;;;5058808;28;20050;-80
2022/03/10 04:11:58;;;;;;;37.30;19.58;;;;;;;;;;5044672;28;20079;-78
2022/03/10 04:14:24;;;;;;;34.00;19.42;;;;;;;;;;5059285;28;20102;-80
2022/03/10 04:16:50;;;;;;;34.70;19.73;;;;;;;;;;5059597;28;20045;-79
2022/03/10 04:19:16;;;;;;;33.30;19.17;;;;;;;;;;5054267;28;20041;-80
2022/03/10 04:21:42;;;;;;;34.80;18.90;;;;;;;;;;5059593;28;20034;-81
2022/03/10 04:24:08;;;;;;;37.08;19.42;;;;;;;;;;5038134;28;20041;-81
2022/03/10 04:26:34;;;;;;;39.25;20.65;;;;;;;;;;5054414;28;20041;-80
2022/03/10 04:29:00;;;;;;;38.42;19.95;;;;;;;;;;5037723;28;20056;-80
2022/03/10 04:31:26;;;;;;;40.42;19.42;;;;;;;;;;5054735;28;20085;-80
2022/03/10 04:33:52;;;;;;;33.85;18.27;;;;;;;;;;5037431;28;20032;-80
2022/03/10 04:36:18;;;;;;;34.47;18.52;;;;;;;;;;5034081;28;20034;-81
2022/03/10 04:38:44;;;;;;;36.05;19.08;;;;;;;;;;5050720;28;20052;-80
2022/03/10 04:41:11;;;;;;;34.70;17.95;;;;;;;;;;5053917;28;20056;-78
2022/03/10 04:43:37;;;;;;;38.03;19.30;;;;;;;;;;5056470;28;20037;-79
2022/03/10 04:46:03;;;;;;;34.28;18.80;;;;;;;;;;5035291;28;20029;-79
2022/03/10 04:48:29;;;;;;;34.03;18.58;;;;;;;;;;5050474;28;20038;-79
2022/03/10 04:50:55;;;;;;;35.08;18.27;;;;;;;;;;5051566;28;20037;-79
2022/03/10 04:53:21;;;;;;;34.35;18.30;;;;;;;;;;5050624;28;20042;-79
2022/03/10 04:55:47;;;;;;;38.20;18.02;;;;;;;;;;5034921;28;20045;-79
2022/03/10 04:58:14;;;;;;;34.35;18.13;;;;;;;;;;5051612;28;20072;-79
2022/03/10 05:00:40;;;;;;;36.35;19.35;;;;;;;;;;5049757;28;20465;-79
2022/03/10 05:03:06;;;;;;;38.65;18.60;;;;;;;;;;5032920;28;20065;-79
2022/03/10 05:05:32;;;;;;;34.17;18.10;;;;;;;;;;5050083;28;20038;-78
2022/03/10 05:07:58;;;;;;;37.28;19.05;;;;;;;;;;5034171;28;20068;-79
2022/03/10 05:10:24;;;;;;;38.22;19.52;;;;;;;;;;5050377;28;20041;-79
2022/03/10 05:12:54;;;;;;;39.15;19.80;;;;;;;;;;5049438;28;20048;-78
2022/03/10 05:15:20;;;;;;;37.22;19.80;;;;;;;;;;5047301;28;20041;-79
2022/03/10 05:17:46;;;;;;;39.05;19.90;;;;;;;;;;5028316;28;20045;-79
2022/03/10 05:20:12;;;;;;;39.38;19.75;;;;;;;;;;5046391;28;20060;-80
2022/03/10 05:22:42;;;;;;;41.78;20.33;;;;;;;;;;5032597;28;20045;-79
2022/03/10 05:25:08;;;;;;;38.55;19.23;;;;;;;;;;5028916;28;20041;-77
2022/03/10 05:27:34;;;;;;;37.47;19.42;;;;;;;;;;5028895;28;20061;-77
2022/03/10 05:30:00;;;;;;;36.55;19.95;;;;;;;;;;5028314;28;20042;-77
2022/03/10 05:32:26;;;;;;;39.22;19.90;;;;;;;;;;5028361;28;20342;-79
2022/03/10 05:34:52;;;;;;;38.15;20.40;;;;;;;;;;5030760;28;20041;-81
2022/03/10 05:37:18;;;;;;;38.30;19.33;;;;;;;;;;5048401;28;20075;-78
2022/03/10 05:39:44;;;;;;;36.53;19.52;;;;;;;;;;5043522;28;20084;-79
2022/03/10 05:42:10;;;;;;;38.78;19.23;;;;;;;;;;5038540;28;20389;-80
2022/03/10 05:44:36;;;;;;;40.13;20.92;;;;;;;;;;5021357;28;20117;-80
2022/03/10 05:47:02;;;;;;;42.72;21.23;;;;;;;;;;5039503;28;20445;-81
2022/03/10 05:49:28;;;;;;;39.50;20.83;;;;;;;;;;5022617;28;20037;-77
2022/03/10 05:51:54;;;;;;;38.78;19.95;;;;;;;;;;5039098;28;20552;-81
2022/03/10 05:54:20;;;;;;;37.72;19.40;;;;;;;;;;5038324;28;20069;-81
2022/03/10 05:56:46;;;;;;;46.92;20.85;;;;;;;;;;5042302;28;20453;-79
2022/03/10 05:59:12;;;;;;;40.70;20.02;;;;;;;;;;5044149;28;20054;-79
2022/03/10 06:01:38;;;;;;;42.03;21.27;;;;;;;;;;5044819;28;20040;-81
2022/03/10 06:04:04;;;;;;;42.75;21.40;;;;;;;;;;5040433;28;20384;-81
2022/03/10 06:06:30;;;;;;;36.78;19.85;;;;;;;;;;5038299;28;20071;-81
2022/03/10 06:08:56;;;;;;;35.33;19.80;;;;;;;;;;5022140;28;20184;-81
2022/03/10 06:11:22;;;;;;;35.80;19.65;;;;;;;;;;5038912;28;20045;-81
2022/03/10 06:13:48;;;;;;;36.92;20.63;;;;;;;;;;5046827;28;20148;-80
2022/03/10 06:16:14;;;;;;;39.58;19.88;;;;;;;;;;5047052;28;20047;-79
2022/03/10 06:18:40;;;;;;;39.72;20.85;;;;;;;;;;5031505;28;20052;-79
2022/03/10 06:21:06;;;;;;;43.47;21.70;;;;;;;;;;5048314;28;20065;-80
2022/03/10 06:23:32;;;;;;;43.90;23.33;;;;;;;;;;5046696;28;20041;-79
2022/03/10 06:25:58;;;;;;;39.00;19.75;;;;;;;;;;5026729;28;20433;-79
2022/03/10 06:28:24;;;;;;;42.67;19.88;;;;;;;;;;5044525;28;20029;-79
2022/03/10 06:30:50;;;;;;;41.67;19.98;;;;;;;;;;5047485;28;20129;-79
2022/03/10 06:33:16;;;;;;;39.40;19.45;;;;;;;;;;5028266;28;20136;-79
2022/03/10 06:35:42;;;;;;;38.35;19.35;;;;;;;;;;5041493;28;20124;-79
2022/03/10 06:38:08;;;;;;;39.15;19.83;;;;;;;;;;5023004;28;20041;-78
2022/03/10 06:40:34;;;;;;;36.65;18.80;;;;;;;;;;5026024;28;20053;-78
2022/03/10 06:43:00;;;;;;;40.85;20.13;;;;;;;;;;5040461;28;20136;-79
2022/03/10 06:45:26;;;;;;;40.55;21.10;;;;;;;;;;5026740;28;20112;-79
2022/03/10 06:47:52;;;;;;;44.10;23.20;;;;;;;;;;5028380;28;20026;-79
2022/03/10 06:50:19;;;;;;;57.45;31.35;;;;;;;;;;5048756;28;20041;-79
2022/03/10 06:52:45;;;;;;;55.47;26.27;;;;;;;;;;5046952;28;20046;-80
2022/03/10 06:55:11;;;;;;;55.53;26.20;;;;;;;;;;5048344;28;20041;-78
2022/03/10 06:57:37;;;;;;;47.17;26.05;;;;;;;;;;5033564;28;20049;-80
2022/03/10 07:00:05;;;;;;;55.92;26.90;;;;;;;;;;5030698;28;20057;-81
2022/03/10 07:02:31;;;;;;;52.33;25.35;;;;;;;;;;5032610;28;20037;-80
2022/03/10 07:04:57;;;;;;;44.28;22.58;;;;;;;;;;5032235;28;20349;-78
2022/03/10 07:07:23;;;;;;;41.80;22.23;;;;;;;;;;5051337;28;20054;-79
2022/03/10 07:09:50;;;;;;;41.17;21.80;;;;;;;;;;5061069;28;20041;-78
2022/03/10 07:12:16;;;;;;;43.65;22.58;;;;;;;;;;5027436;28;20108;-79
2022/03/10 07:14:42;;;;;;;39.53;19.80;;;;;;;;;;5045247;28;20038;-78
2022/03/10 07:17:08;;;;;;;38.95;20.23;;;;;;;;;;5045609;28;20037;-79
2022/03/10 07:19:34;;;;;;;45.78;20.45;;;;;;;;;;5046170;28;20037;-78
2022/03/10 07:22:00;;;;;;;41.50;19.70;;;;;;;;;;5030055;28;20072;-80
2022/03/10 07:24:26;;;;;;;38.17;19.92;;;;;;;;;;5041326;28;20404;-78
2022/03/10 07:26:52;;;;;;;40.13;20.27;;;;;;;;;;5032139;28;20072;-79
2022/03/10 07:29:18;;;;;;;43.25;20.27;;;;;;;;;;5046852;28;20052;-80
2022/03/10 07:31:44;;;;;;;39.92;20.25;;;;;;;;;;5040899;28;20041;-79
2022/03/10 07:34:10;;;;;;;47.78;21.17;;;;;;;;;;5032848;28;20041;-80
2022/03/10 07:36:36;;;;;;;40.70;21.52;;;;;;;;;;5034937;28;20063;-81
2022/03/10 07:39:02;;;;;;;40.28;20.13;;;;;;;;;;5052620;28;20041;-81
2022/03/10 07:41:28;;;;;;;39.90;20.90;;;;;;;;;;5033370;28;20041;-81
2022/03/10 07:43:54;;;;;;;40.47;20.58;;;;;;;;;;5052660;28;20025;-80
2022/03/10 07:46:22;;;;;;;38.95;19.92;;;;;;;;;;5031860;28;20042;-80
2022/03/10 07:48:48;;;;;;;40.63;20.98;;;;;;;;;;5031102;28;20045;-80
2022/03/10 07:51:14;;;;;;;43.15;20.65;;;;;;;;;;5047600;28;20041;-80
2022/03/10 07:53:40;;;;;;;40.60;20.65;;;;;;;;;;5047663;28;20068;-79
2022/03/10 07:56:06;;;;;;;42.80;20.45;;;;;;;;;;5046343;28;20033;-79
2022/03/10 07:58:33;;;;;;;40.80;19.80;;;;;;;;;;5046896;28;20034;-80
2022/03/10 08:00:59;;;;;;;35.70;19.23;;;;;;;;;;5031737;28;20033;-80
2022/03/10 08:03:27;;;;;;;41.25;20.83;;;;;;;;;;5032216;28;20061;-81
2022/03/10 08:05:54;;;;;;;36.25;20.15;;;;;;;;;;5026966;28;20064;-81
2022/03/10 08:08:20;;;;;;;41.15;19.40;;;;;;;;;;5053201;28;20089;-80
2022/03/10 08:10:46;;;;;;;40.83;18.83;;;;;;;;;;5038486;28;20030;-80
2022/03/10 08:13:12;;;;;;;34.25;18.90;;;;;;;;;;5054953;28;20061;-80
2022/03/10 08:15:40;;;;;;;39.42;19.77;;;;;;;;;;5054451;28;20038;-80
2022/03/10 08:18:06;;;;;;;37.63;18.85;;;;;;;;;;5055328;28;20045;-80
2022/03/10 08:20:32;;;;;;;39.55;18.98;;;;;;;;;;5037871;28;20048;-81
2022/03/10 08:22:58;;;;;;;41.08;19.70;;;;;;;;;;5038672;28;20045;-80
2022/03/10 08:25:24;;;;;;;34.67;18.73;;;;;;;;;;5038244;28;20072;-80
2022/03/10 08:27:50;;;;;;;37.78;18.92;;;;;;;;;;5034353;28;20041;-79
2022/03/10 08:30:16;;;;;;;32.72;17.70;;;;;;;;;;5053372;28;20082;-80
2022/03/10 08:32:45;;;;;;;31.90;18.63;;;;;;;;;;5038286;28;20101;-80
2022/03/10 08:35:12;;;;;;;34.28;18.73;;;;;;;;;;5038214;28;20102;-80
2022/03/10 08:37:38;;;;;;;36.25;18.83;;;;;;;;;;5053560;28;20041;-82
2022/03/10 08:40:05;;;;;;;38.05;18.80;;;;;;;;;;5051660;28;20603;-81
2022/03/10 08:42:31;;;;;;;39.28;20.05;;;;;;;;;;5053551;28;20042;-80
2022/03/10 08:44:57;;;;;;;38.67;20.13;;;;;;;;;;5031028;28;20080;-80
2022/03/10 08:47:23;;;;;;;36.20;18.90;;;;;;;;;;5054809;28;20033;-80
2022/03/10 08:49:49;;;;;;;34.65;19.38;;;;;;;;;;5056859;28;20045;-82
2022/03/10 08:52:15;;;;;;;35.22;19.23;;;;;;;;;;5059719;28;20041;-81
2022/03/10 08:54:41;;;;;;;33.55;19.70;;;;;;;;;;5056711;28;20045;-80
2022/03/10 08:57:07;;;;;;;38.08;19.63;;;;;;;;;;5054331;28;20095;-82
2022/03/10 08:59:34;;;;;;;36.38;18.77;;;;;;;;;;5035273;28;20128;-81
2022/03/10 09:02:00;;;;;;;41.83;19.67;;;;;;;;;;5050275;28;20085;-81
2022/03/10 09:04:29;;;;;;;35.78;19.63;;;;;;;;;;5057165;28;20037;-82
2022/03/10 09:06:55;;;;;;;34.63;19.15;;;;;;;;;;5040157;28;20042;-80
2022/03/10 09:09:21;;;;;;;34.92;18.83;;;;;;;;;;5055040;28;20033;-82
2022/03/10 09:11:47;;;;;;;36.88;20.15;;;;;;;;;;5053392;28;20037;-83
2022/03/10 09:14:13;;;;;;;36.72;19.02;;;;;;;;;;5054164;28;20047;-81
2022/03/10 09:16:39;;;;;;;37.80;19.23;;;;;;;;;;5054251;28;20053;-80
2022/03/10 09:19:05;;;;;;;36.50;19.95;;;;;;;;;;5054917;28;20031;-81
2022/03/10 09:21:31;;;;;;;38.88;19.67;;;;;;;;;;5054127;28;20424;-80
2022/03/10 09:23:57;;;;;;;37.97;19.50;;;;;;;;;;5055997;28;20061;-80
2022/03/10 09:26:23;;;;;;;36.38;19.40;;;;;;;;;;5055644;28;20041;-81
2022/03/10 09:28:49;;;;;;;37.88;19.38;;;;;;;;;;5053217;28;20068;-80
2022/03/10 09:31:18;;;;;;;33.53;19.02;;;;;;;;;;5038545;28;20045;-83
2022/03/10 09:33:45;;;;;;;34.53;20.08;;;;;;;;;;5050497;28;20060;-80
2022/03/10 09:36:11;;;;;;;38.33;20.52;;;;;;;;;;5049785;28;20574;-79
2022/03/10 09:38:37;;;;;;;35.40;18.85;;;;;;;;;;5036262;28;20110;-80
2022/03/10 09:41:03;;;;;;;37.97;20.50;;;;;;;;;;5050028;28;20438;-80
2022/03/10 09:43:31;;;;;;;34.83;19.23;;;;;;;;;;5052153;28;20097;-81
2022/03/10 09:45:57;;;;;;;37.20;20.92;;;;;;;;;;5038185;28;20041;-81
2022/03/10 09:48:23;;;;;;;37.65;20.92;;;;;;;;;;5052265;28;20038;-80
2022/03/10 09:50:49;;;;;;;41.38;21.70;;;;;;;;;;5052159;28;20105;-81
2022/03/10 09:53:16;;;;;;;37.88;21.10;;;;;;;;;;5052299;28;20040;-79
2022/03/10 09:55:42;;;;;;;43.78;22.45;;;;;;;;;;5053852;28;20049;-80
2022/03/10 09:58:08;;;;;;;44.67;22.27;;;;;;;;;;5053032;28;20089;-81
2022/03/10 10:00:34;;;;;;;40.05;20.40;;;;;;;;;;5034804;28;20053;-80
2022/03/10 10:03:00;;;;;;;41.65;20.88;;;;;;;;;;5050161;28;20105;-80
2022/03/10 10:05:30;;;;;;;34.50;20.40;;;;;;;;;;5056199;28;20024;-81
2022/03/10 10:08:06;;;;;;;36.67;20.83;;;;;;;;;;5053392;28;20077;-82
2022/03/10 10:10:32;;;;;;;39.35;21.40;;;;;;;;;;5056528;28;20063;-81
2022/03/10 10:13:04;;;;;;;37.50;21.50;;;;;;;;;;5055223;28;20045;-80
2022/03/10 10:15:33;;;;;;;36.97;19.98;;;;;;;;;;5035937;28;20958;-80
2022/03/10 10:18:00;;;;;;;36.53;20.83;;;;;;;;;;5036784;28;20120;-80
2022/03/10 10:20:30;;;;;;;34.25;19.73;;;;;;;;;;5053381;28;20091;-80
2022/03/10 10:22:56;;;;;;;38.25;20.80;;;;;;;;;;5050710;28;20042;-80
2022/03/10 10:25:23;;;;;;;35.80;19.48;;;;;;;;;;5034174;28;20052;-80
2022/03/10 10:27:49;;;;;;;37.63;19.00;;;;;;;;;;5051754;28;20038;-82
2022/03/10 10:30:15;;;;;;;33.08;18.27;;;;;;;;;;5037194;28;20041;-81
2022/03/10 10:32:44;;;;;;;31.48;19.42;;;;;;;;;;5051117;28;20048;-81
2022/03/10 10:35:10;;;;;;;33.45;18.70;;;;;;;;;;5051739;28;20073;-79
2022/03/10 10:37:37;;;;;;;36.50;18.70;;;;;;;;;;5044675;28;20045;-79
2022/03/10 10:40:04;;;;;;;30.83;18.08;;;;;;;;;;5024251;28;20041;-80
2022/03/10 10:42:30;;;;;;;35.90;18.80;;;;;;;;;;5043893;28;20037;-78
2022/03/10 10:44:58;;;;;;;34.30;18.33;;;;;;;;;;5026797;28;20041;-79
2022/03/10 10:47:26;;;;;;;30.50;17.33;;;;;;;;;;5042147;28;20041;-79
2022/03/10 10:50:06;;;;;;;35.72;18.48;;;;;;;;;;5033871;28;20611;-80
2022/03/10 10:52:39;;;;;;;29.88;17.17;;;;;;;;;;5033025;28;20045;-80
2022/03/10 10:55:09;;;;;;;31.90;18.40;;;;;;;;;;5045164;28;20449;-80
2022/03/10 10:57:35;;;;;;;29.15;17.25;;;;;;;;;;5028771;28;20033;-80
2022/03/10 11:00:11;;;;;;;28.83;16.95;;;;;;;;;;5030606;28;20452;-78
2022/03/10 11:02:42;;;;;;;29.33;17.25;;;;;;;;;;5045634;28;20049;-80
2022/03/10 11:05:08;;;;;;;28.67;17.88;;;;;;;;;;5030475;28;20037;-79
2022/03/10 11:07:34;;;;;;;26.77;15.68;;;;;;;;;;5045847;28;20038;-80
2022/03/10 11:10:02;;;;;;;24.52;15.30;;;;;;;;;;5023548;28;20095;-78
2022/03/10 11:12:28;;;;;;;24.52;14.80;;;;;;;;;;5026668;28;20053;-78
2022/03/10 11:14:54;;;;;;;24.08;14.18;;;;;;;;;;5043794;28;20034;-78
2022/03/10 11:17:20;;;;;;;21.67;13.57;;;;;;;;;;5009765;28;20147;-78
2022/03/10 11:19:46;;;;;;;25.65;14.02;;;;;;;;;;5007852;28;20137;-79
2022/03/10 11:22:19;;;;;;;22.05;13.27;;;;;;;;;;5008853;28;20480;-79
2022/03/10 11:24:45;;;;;;;26.42;12.55;;;;;;;;;;5035380;28;20038;-80
2022/03/10 11:27:13;;;;;;;20.13;12.30;;;;;;;;;;5046287;28;20045;-79
2022/03/10 11:29:39;;;;;;;17.77;11.20;;;;;;;;;;5040612;28;20037;-80
2022/03/10 11:32:06;;;;;;;16.83;10.90;;;;;;;;;;5030290;28;20052;-78
2022/03/10 11:34:46;;;;;;;18.52;10.57;;;;;;;;;;5046406;28;20095;-78
2022/03/10 11:37:12;;;;;;;20.60;10.57;;;;;;;;;;5046954;28;20056;-80
2022/03/10 11:39:54;;;;;;;18.25;9.93;;;;;;;;;;5041547;28;20046;-79
2022/03/10 11:42:28;;;;;;;15.75;9.52;;;;;;;;;;5026628;28;20045;-79
2022/03/10 11:45:13;;;;;;;14.75;9.65;;;;;;;;;;5029543;28;20045;-79
2022/03/10 11:47:39;;;;;;;14.65;9.48;;;;;;;;;;5049455;28;20045;-79
2022/03/10 11:50:24;;;;;;;16.38;9.27;;;;;;;;;;5048382;28;20037;-79
2022/03/10 11:52:57;;;;;;;15.82;9.25;;;;;;;;;;5049356;28;20042;-79
2022/03/10 11:55:23;;;;;;;17.02;9.02;;;;;;;;;;5012448;28;20077;-80
2022/03/10 11:57:55;;;;;;;13.05;8.75;;;;;;;;;;5027996;28;20073;-80
2022/03/10 12:00:25;;;;;;;15.15;8.35;;;;;;;;;;5041953;28;20068;-79
2022/03/10 12:02:57;;;;;;;13.27;8.10;;;;;;;;;;5032932;28;20041;-80
2022/03/10 12:05:23;;;;;;;13.10;8.73;;;;;;;;;;5049382;28;20048;-80
2022/03/10 12:07:51;;;;;;;11.48;7.80;;;;;;;;;;5034560;28;20085;-79
2022/03/10 12:10:17;;;;;;;14.55;8.57;;;;;;;;;;5057143;28;20040;-79
2022/03/10 12:12:45;;;;;;;13.43;7.53;;;;;;;;;;5055466;28;20056;-79
2022/03/10 12:15:20;;;;;;;12.57;7.78;;;;;;;;;;5031298;28;20068;-79
2022/03/10 12:17:49;;;;;;;11.07;7.60;;;;;;;;;;5047077;28;20052;-79
2022/03/10 12:20:23;;;;;;;12.40;6.90;;;;;;;;;;5046297;28;20037;-79
2022/03/10 12:22:49;;;;;;;;;;;;;;;;;;5047706;28;20046;-79
2022/03/10 12:25:21;;;;;;;11.15;6.60;;;;;;;;;;5048375;28;19916;-80
2022/03/10 12:27:51;;;;;;;10.70;6.28;;;;;;;;;;5046588;28;20044;-79
2022/03/10 12:30:21;;;;;;;11.48;6.65;;;;;;;;;;5046118;28;20037;-79
2022/03/10 12:32:48;;;;;;;10.68;5.50;;;;;;;;;;5030288;28;20088;-79
2022/03/10 12:35:14;;;;;;;14.43;5.97;;;;;;;;;;5028457;28;20060;-78
2022/03/10 12:37:46;;;;;;;9.88;5.97;;;;;;;;;;5026209;28;20046;-79
2022/03/10 12:40:16;;;;;;;11.63;6.03;;;;;;;;;;5023804;28;20052;-79
2022/03/10 12:42:42;;;;;;;10.48;5.78;;;;;;;;;;5042372;28;20045;-79
2022/03/10 12:45:08;;;;;;;9.57;5.55;;;;;;;;;;5042541;28;20035;-81
2022/03/10 12:47:34;;;;;;;7.97;5.32;;;;;;;;;;5030985;28;20790;-79
2022/03/10 12:50:00;;;;;;;9.80;5.70;;;;;;;;;;5046220;28;20104;-79
2022/03/10 12:52:27;;;;;;;12.57;6.35;;;;;;;;;;5030096;28;20084;-79
2022/03/10 12:54:56;;;;;;;14.43;6.45;;;;;;;;;;5029795;28;20041;-80
2022/03/10 12:57:22;;;;;;;9.27;6.05;;;;;;;;;;5031358;28;20457;-80
2022/03/10 12:59:49;;;;;;;9.32;6.38;;;;;;;;;;5046381;28;20053;-80
2022/03/10 13:02:16;;;;;;;11.70;6.90;;;;;;;;;;5047480;28;20053;-79
2022/03/10 13:04:48;;;;;;;11.50;6.97;;;;;;;;;;5044244;28;20125;-79
2022/03/10 13:07:17;;;;;;;10.43;6.93;;;;;;;;;;5052323;28;20052;-78
2022/03/10 13:09:50;;;;;;;11.98;7.47;;;;;;;;;;5031350;28;20076;-79
2022/03/10 13:12:23;;;;;;;10.85;7.20;;;;;;;;;;5055139;28;20044;-80
2022/03/10 13:14:49;;;;;;;12.45;7.60;;;;;;;;;;5058094;28;20042;-80
2022/03/10 13:17:15;;;;;;;16.25;7.53;;;;;;;;;;5043465;28;20022;-80
2022/03/10 13:19:41;;;;;;;12.15;7.40;;;;;;;;;;5033090;28;20111;-80
2022/03/10 13:22:07;;;;;;;11.32;7.43;;;;;;;;;;5024471;28;20046;-80
2022/03/10 13:24:41;;;;;;;10.30;6.28;;;;;;;;;;5029665;28;20064;-79
2022/03/10 13:27:08;;;;;;;9.57;6.63;;;;;;;;;;5026229;28;20033;-78
2022/03/10 13:29:34;;;;;;;10.88;6.53;;;;;;;;;;5025209;28;20068;-78
2022/03/10 13:32:00;;;;;;;10.52;6.13;;;;;;;;;;5025423;28;20079;-79
2022/03/10 13:34:26;;;;;;;10.90;5.95;;;;;;;;;;5040175;28;20056;-78
2022/03/10 13:36:52;;;;;;;12.85;6.25;;;;;;;;;;5040635;28;20041;-79
2022/03/10 13:39:22;;;;;;;10.50;5.70;;;;;;;;;;5023618;28;20037;-78
2022/03/10 13:41:48;;;;;;;7.75;5.03;;;;;;;;;;5042849;28;20045;-79
2022/03/10 13:44:15;;;;;;;8.80;5.28;;;;;;;;;;5041387;28;20030;-79
2022/03/10 13:46:41;;;;;;;7.63;5.00;;;;;;;;;;5021905;28;20041;-80
2022/03/10 13:49:22;;;;;;;14.18;5.53;;;;;;;;;;5037800;28;20030;-80
2022/03/10 13:51:48;;;;;;;11.70;5.63;;;;;;;;;;5039432;28;20107;-81
2022/03/10 13:54:16;;;;;;;7.72;5.28;;;;;;;;;;5039928;28;20053;-82
2022/03/10 13:56:46;;;;;;;6.75;4.65;;;;;;;;;;5027557;28;20053;-77
2022/03/10 13:59:12;;;;;;;9.60;4.75;;;;;;;;;;5045670;28;20111;-81
2022/03/10 14:01:39;;;;;;;7.93;5.00;;;;;;;;;;5023782;28;20045;-81
2022/03/10 14:04:09;;;;;;;7.07;5.13;;;;;;;;;;5021827;28;20051;-81
2022/03/10 14:06:42;;;;;;;7.28;4.90;;;;;;;;;;5021850;28;20033;-81
2022/03/10 14:09:24;;;;;;;7.65;4.97;;;;;;;;;;5040637;28;20060;-80
2022/03/10 14:11:51;;;;;;;8.63;5.50;;;;;;;;;;5044820;28;20096;-79
2022/03/10 14:14:17;;;;;;;11.63;5.00;;;;;;;;;;5027424;28;20041;-81
2022/03/10 14:16:52;;;;;;;7.05;4.85;;;;;;;;;;5024297;28;20052;-81
2022/03/10 14:19:28;;;;;;;7.00;4.60;;;;;;;;;;5024750;28;20041;-80
2022/03/10 14:21:57;;;;;;;8.18;4.50;;;;;;;;;;5041921;28;20510;-80
2022/03/10 14:24:41;;;;;;;10.55;5.22;;;;;;;;;;5041347;28;20063;-80